sensor_id;sensor_type;location;lat;lon;timestamp;temperature;humidity
55642;DHT22;41509;53.108;6.100;2023-04-03T00:01:37;3.30;99.90
55642;DHT22;41509;53.108;6.100;2023-04-03T00:04:04;3.30;99.90
55642;DHT22;41509;53.108;6.100;2023-04-03T00:06:32;3.30;99.90
55642;DHT22;41509;53.108;6.100;2023-04-03T00:08:59;3.30;99.90
55642;DHT22;41509;53.108;6.100;2023-04-03T00:11:24;3.20;99.90
55642;DHT22;41509;53.108;6.100;2023-04-03T00:13:50;3.20;99.90
55642;DHT22;41509;53.108;6.100;2023-04-03T00:16:16;3.20;99.90
55642;DHT22;41509;53.108;6.100;2023-04-03T00:18:42;3.20;99.90
55642;DHT22;41509;53.108;6.100;2023-04-03T00:21:12;3.20;99.90
55642;DHT22;41509;53.108;6.100;2023-04-03T00:23:38;3.20;99.90
55642;DHT22;41509;53.108;6.100;2023-04-03T00:26:04;3.20;99.90
55642;DHT22;41509;53.108;6.100;2023-04-03T00:28:29;3.20;99.90
55642;DHT22;41509;53.108;6.100;2023-04-03T00:30:55;3.20;99.90
55642;DHT22;41509;53.108;6.100;2023-04-03T00:33:21;3.20;99.90
55642;DHT22;41509;53.108;6.100;2023-04-03T00:35:50;3.10;99.90
55642;DHT22;41509;53.108;6.100;2023-04-03T00:38:15;3.20;99.90
55642;DHT22;41509;53.108;6.100;2023-04-03T00:40:44;3.10;99.90
55642;DHT22;41509;53.108;6.100;2023-04-03T00:43:15;3.10;99.90
55642;DHT22;41509;53.108;6.100;2023-04-03T00:45:44;3.10;99.90
55642;DHT22;41509;53.108;6.100;2023-04-03T00:48:13;3.10;99.90
55642;DHT22;41509;53.108;6.100;2023-04-03T00:50:42;3.10;99.90
55642;DHT22;41509;53.108;6.100;2023-04-03T00:53:13;3.10;99.90
55642;DHT22;41509;53.108;6.100;2023-04-03T00:55:43;3.00;99.90
55642;DHT22;41509;53.108;6.100;2023-04-03T00:58:09;3.00;99.90
55642;DHT22;41509;53.108;6.100;2023-04-03T01:00:39;3.00;99.90
55642;DHT22;41509;53.108;6.100;2023-04-03T01:03:05;2.90;99.90
55642;DHT22;41509;53.108;6.100;2023-04-03T01:05:31;2.90;99.90
55642;DHT22;41509;53.108;6.100;2023-04-03T01:07:58;2.90;99.90
55642;DHT22;41509;53.108;6.100;2023-04-03T01:10:24;2.80;99.90
55642;DHT22;41509;53.108;6.100;2023-04-03T01:12:52;2.80;99.90
55642;DHT22;41509;53.108;6.100;2023-04-03T01:15:24;2.90;99.90
55642;DHT22;41509;53.108;6.100;2023-04-03T01:17:55;2.80;99.90
55642;DHT22;41509;53.108;6.100;2023-04-03T01:25:40;2.70;99.90
55642;DHT22;41509;53.108;6.100;2023-04-03T01:28:08;2.60;99.90
55642;DHT22;41509;53.108;6.100;2023-04-03T01:30:44;2.60;99.90
55642;DHT22;41509;53.108;6.100;2023-04-03T01:33:10;2.60;99.90
55642;DHT22;41509;53.108;6.100;2023-04-03T01:35:37;2.60;99.90
55642;DHT22;41509;53.108;6.100;2023-04-03T01:38:03;2.50;99.90
55642;DHT22;41509;53.108;6.100;2023-04-03T01:40:31;2.50;99.90
55642;DHT22;41509;53.108;6.100;2023-04-03T01:42:57;2.50;99.90
55642;DHT22;41509;53.108;6.100;2023-04-03T01:45:23;2.50;99.90
55642;DHT22;41509;53.108;6.100;2023-04-03T01:47:48;2.40;99.90
55642;DHT22;41509;53.108;6.100;2023-04-03T01:50:14;2.40;99.90
55642;DHT22;41509;53.108;6.100;2023-04-03T01:52:39;2.40;99.90
55642;DHT22;41509;53.108;6.100;2023-04-03T01:55:06;2.40;99.90
55642;DHT22;41509;53.108;6.100;2023-04-03T01:57:31;2.40;99.90
55642;DHT22;41509;53.108;6.100;2023-04-03T01:59:57;2.30;99.90
55642;DHT22;41509;53.108;6.100;2023-04-03T02:02:22;2.30;99.90
55642;DHT22;41509;53.108;6.100;2023-04-03T02:04:48;2.30;99.90
55642;DHT22;41509;53.108;6.100;2023-04-03T02:07:14;2.30;99.90
55642;DHT22;41509;53.108;6.100;2023-04-03T02:09:39;2.20;99.90
55642;DHT22;41509;53.108;6.100;2023-04-03T02:12:05;2.20;99.90
55642;DHT22;41509;53.108;6.100;2023-04-03T02:14:31;2.20;99.90
55642;DHT22;41509;53.108;6.100;2023-04-03T02:16:57;2.20;99.90
55642;DHT22;41509;53.108;6.100;2023-04-03T02:19:23;2.10;99.90
55642;DHT22;41509;53.108;6.100;2023-04-03T02:21:49;2.10;99.90
55642;DHT22;41509;53.108;6.100;2023-04-03T02:24:15;2.20;99.90
55642;DHT22;41509;53.108;6.100;2023-04-03T02:26:40;2.10;99.90
55642;DHT22;41509;53.108;6.100;2023-04-03T02:29:06;2.10;99.90
55642;DHT22;41509;53.108;6.100;2023-04-03T02:31:32;2.10;99.90
55642;DHT22;41509;53.108;6.100;2023-04-03T02:33:57;2.10;99.90
55642;DHT22;41509;53.108;6.100;2023-04-03T02:36:23;2.10;99.90
55642;DHT22;41509;53.108;6.100;2023-04-03T02:38:49;2.00;99.90
55642;DHT22;41509;53.108;6.100;2023-04-03T02:41:14;2.00;99.90
55642;DHT22;41509;53.108;6.100;2023-04-03T02:43:40;2.00;99.90
55642;DHT22;41509;53.108;6.100;2023-04-03T02:46:06;2.00;99.90
55642;DHT22;41509;53.108;6.100;2023-04-03T02:48:32;2.00;99.90
55642;DHT22;41509;53.108;6.100;2023-04-03T02:50:58;2.00;99.90
55642;DHT22;41509;53.108;6.100;2023-04-03T02:53:23;1.90;99.90
55642;DHT22;41509;53.108;6.100;2023-04-03T02:55:49;1.90;99.90
55642;DHT22;41509;53.108;6.100;2023-04-03T02:58:15;1.90;99.90
55642;DHT22;41509;53.108;6.100;2023-04-03T03:00:41;1.90;99.90
55642;DHT22;41509;53.108;6.100;2023-04-03T03:03:10;1.90;99.90
55642;DHT22;41509;53.108;6.100;2023-04-03T03:05:35;1.90;99.90
55642;DHT22;41509;53.108;6.100;2023-04-03T03:08:01;1.80;99.90
55642;DHT22;41509;53.108;6.100;2023-04-03T03:10:27;1.80;99.90
55642;DHT22;41509;53.108;6.100;2023-04-03T03:12:53;1.80;99.90
55642;DHT22;41509;53.108;6.100;2023-04-03T03:15:18;1.80;99.90
55642;DHT22;41509;53.108;6.100;2023-04-03T03:17:45;1.80;99.90
55642;DHT22;41509;53.108;6.100;2023-04-03T03:20:11;1.80;99.90
55642;DHT22;41509;53.108;6.100;2023-04-03T03:22:38;1.70;99.90
55642;DHT22;41509;53.108;6.100;2023-04-03T03:25:07;1.70;99.90
55642;DHT22;41509;53.108;6.100;2023-04-03T03:27:33;1.70;99.90
55642;DHT22;41509;53.108;6.100;2023-04-03T03:29:58;1.70;99.90
55642;DHT22;41509;53.108;6.100;2023-04-03T03:32:24;1.70;99.90
55642;DHT22;41509;53.108;6.100;2023-04-03T03:34:49;1.70;99.90
55642;DHT22;41509;53.108;6.100;2023-04-03T03:37:17;1.70;99.90
55642;DHT22;41509;53.108;6.100;2023-04-03T03:39:43;1.60;99.90
55642;DHT22;41509;53.108;6.100;2023-04-03T03:42:08;1.60;99.90
55642;DHT22;41509;53.108;6.100;2023-04-03T03:44:38;1.60;99.90
55642;DHT22;41509;53.108;6.100;2023-04-03T03:47:03;1.60;99.90
55642;DHT22;41509;53.108;6.100;2023-04-03T03:49:31;1.50;99.90
55642;DHT22;41509;53.108;6.100;2023-04-03T03:51:56;1.50;99.90
55642;DHT22;41509;53.108;6.100;2023-04-03T03:54:22;1.50;99.90
55642;DHT22;41509;53.108;6.100;2023-04-03T03:56:48;1.50;99.90
55642;DHT22;41509;53.108;6.100;2023-04-03T03:59:13;1.50;99.90
55642;DHT22;41509;53.108;6.100;2023-04-03T04:01:39;1.50;99.90
55642;DHT22;41509;53.108;6.100;2023-04-03T04:04:05;1.50;99.90
55642;DHT22;41509;53.108;6.100;2023-04-03T04:06:31;1.40;99.90
55642;DHT22;41509;53.108;6.100;2023-04-03T04:08:56;1.40;99.90
55642;DHT22;41509;53.108;6.100;2023-04-03T04:11:22;1.30;99.90
55642;DHT22;41509;53.108;6.100;2023-04-03T04:13:47;1.30;99.90
55642;DHT22;41509;53.108;6.100;2023-04-03T04:16:13;1.30;99.90
55642;DHT22;41509;53.108;6.100;2023-04-03T04:18:39;1.30;99.90
55642;DHT22;41509;53.108;6.100;2023-04-03T04:21:07;1.20;99.90
55642;DHT22;41509;53.108;6.100;2023-04-03T04:23:33;1.20;99.90
55642;DHT22;41509;53.108;6.100;2023-04-03T04:26:01;1.10;99.90
55642;DHT22;41509;53.108;6.100;2023-04-03T04:28:27;1.10;99.90
55642;DHT22;41509;53.108;6.100;2023-04-03T04:30:53;1.10;99.90
55642;DHT22;41509;53.108;6.100;2023-04-03T04:33:18;1.00;99.90
55642;DHT22;41509;53.108;6.100;2023-04-03T04:35:44;1.00;99.90
55642;DHT22;41509;53.108;6.100;2023-04-03T04:38:12;1.00;99.90
55642;DHT22;41509;53.108;6.100;2023-04-03T04:40:37;1.00;99.90
55642;DHT22;41509;53.108;6.100;2023-04-03T04:43:03;1.00;99.90
55642;DHT22;41509;53.108;6.100;2023-04-03T04:45:28;1.00;99.90
55642;DHT22;41509;53.108;6.100;2023-04-03T04:47:57;1.00;99.90
55642;DHT22;41509;53.108;6.100;2023-04-03T04:50:23;1.00;99.90
55642;DHT22;41509;53.108;6.100;2023-04-03T04:52:49;1.00;99.90
55642;DHT22;41509;53.108;6.100;2023-04-03T04:55:14;1.00;99.90
55642;DHT22;41509;53.108;6.100;2023-04-03T04:57:40;1.00;99.90
55642;DHT22;41509;53.108;6.100;2023-04-03T05:00:06;1.00;99.90
55642;DHT22;41509;53.108;6.100;2023-04-03T05:02:32;1.00;99.90
55642;DHT22;41509;53.108;6.100;2023-04-03T05:04:58;0.90;99.90
55642;DHT22;41509;53.108;6.100;2023-04-03T05:07:24;0.90;99.90
55642;DHT22;41509;53.108;6.100;2023-04-03T05:09:50;0.90;99.90
55642;DHT22;41509;53.108;6.100;2023-04-03T05:12:16;0.90;99.90
55642;DHT22;41509;53.108;6.100;2023-04-03T05:14:42;0.90;99.90
55642;DHT22;41509;53.108;6.100;2023-04-03T05:17:08;0.80;99.90
55642;DHT22;41509;53.108;6.100;2023-04-03T05:19:33;0.80;99.90
55642;DHT22;41509;53.108;6.100;2023-04-03T05:22:01;0.80;99.90
55642;DHT22;41509;53.108;6.100;2023-04-03T05:24:27;0.80;99.90
55642;DHT22;41509;53.108;6.100;2023-04-03T05:26:53;0.80;99.90
55642;DHT22;41509;53.108;6.100;2023-04-03T05:29:19;0.80;99.90
55642;DHT22;41509;53.108;6.100;2023-04-03T05:31:47;0.70;99.90
55642;DHT22;41509;53.108;6.100;2023-04-03T05:34:14;0.70;99.90
55642;DHT22;41509;53.108;6.100;2023-04-03T05:36:40;0.70;99.90
55642;DHT22;41509;53.108;6.100;2023-04-03T05:39:05;0.80;99.90
55642;DHT22;41509;53.108;6.100;2023-04-03T05:41:31;0.80;99.90
55642;DHT22;41509;53.108;6.100;2023-04-03T05:43:57;0.80;99.90
55642;DHT22;41509;53.108;6.100;2023-04-03T05:46:22;0.90;99.90
55642;DHT22;41509;53.108;6.100;2023-04-03T05:48:48;0.90;99.90
55642;DHT22;41509;53.108;6.100;2023-04-03T05:56:57;1.10;99.90
55642;DHT22;41509;53.108;6.100;2023-04-03T05:59:26;1.20;99.90
55642;DHT22;41509;53.108;6.100;2023-04-03T06:01:55;1.20;99.90
55642;DHT22;41509;53.108;6.100;2023-04-03T06:04:21;1.10;99.90
55642;DHT22;41509;53.108;6.100;2023-04-03T06:07:15;1.10;99.90
55642;DHT22;41509;53.108;6.100;2023-04-03T06:09:55;1.20;99.90
55642;DHT22;41509;53.108;6.100;2023-04-03T06:12:27;1.20;99.90
55642;DHT22;41509;53.108;6.100;2023-04-03T06:15:11;1.30;99.90
55642;DHT22;41509;53.108;6.100;2023-04-03T06:17:40;1.40;99.90
55642;DHT22;41509;53.108;6.100;2023-04-03T06:20:31;1.30;99.90
55642;DHT22;41509;53.108;6.100;2023-04-03T06:23:14;1.40;99.90
55642;DHT22;41509;53.108;6.100;2023-04-03T06:25:45;1.50;99.90
55642;DHT22;41509;53.108;6.100;2023-04-03T06:28:19;1.50;99.90
55642;DHT22;41509;53.108;6.100;2023-04-03T06:30:48;1.60;99.90
55642;DHT22;41509;53.108;6.100;2023-04-03T06:33:14;1.60;99.90
55642;DHT22;41509;53.108;6.100;2023-04-03T06:35:42;1.70;99.90
55642;DHT22;41509;53.108;6.100;2023-04-03T06:38:23;1.70;99.90
55642;DHT22;41509;53.108;6.100;2023-04-03T06:40:52;1.70;99.90
55642;DHT22;41509;53.108;6.100;2023-04-03T06:43:26;1.80;99.90
55642;DHT22;41509;53.108;6.100;2023-04-03T06:45:55;1.80;99.90
55642;DHT22;41509;53.108;6.100;2023-04-03T06:48:44;1.90;99.90
55642;DHT22;41509;53.108;6.100;2023-04-03T06:51:20;1.90;99.90
55642;DHT22;41509;53.108;6.100;2023-04-03T06:53:53;2.00;99.90
55642;DHT22;41509;53.108;6.100;2023-04-03T06:56:22;2.00;99.90
55642;DHT22;41509;53.108;6.100;2023-04-03T06:58:51;2.10;99.90
55642;DHT22;41509;53.108;6.100;2023-04-03T07:01:18;2.20;99.90
55642;DHT22;41509;53.108;6.100;2023-04-03T07:03:51;2.20;99.90
55642;DHT22;41509;53.108;6.100;2023-04-03T07:06:18;2.30;99.90
55642;DHT22;41509;53.108;6.100;2023-04-03T07:08:44;2.30;99.90
55642;DHT22;41509;53.108;6.100;2023-04-03T07:11:11;2.40;99.90
55642;DHT22;41509;53.108;6.100;2023-04-03T07:13:37;2.50;99.90
55642;DHT22;41509;53.108;6.100;2023-04-03T07:16:03;2.50;99.90
55642;DHT22;41509;53.108;6.100;2023-04-03T07:18:31;2.60;99.90
55642;DHT22;41509;53.108;6.100;2023-04-03T07:20:57;2.60;99.90
55642;DHT22;41509;53.108;6.100;2023-04-03T07:23:25;2.70;99.90
55642;DHT22;41509;53.108;6.100;2023-04-03T07:25:52;2.80;99.90
55642;DHT22;41509;53.108;6.100;2023-04-03T07:28:28;2.80;99.90
55642;DHT22;41509;53.108;6.100;2023-04-03T07:31:05;3.00;99.90
55642;DHT22;41509;53.108;6.100;2023-04-03T07:33:42;3.10;99.90
55642;DHT22;41509;53.108;6.100;2023-04-03T07:36:19;3.00;99.90
55642;DHT22;41509;53.108;6.100;2023-04-03T07:38:45;3.10;99.90
55642;DHT22;41509;53.108;6.100;2023-04-03T07:41:16;3.20;99.90
55642;DHT22;41509;53.108;6.100;2023-04-03T07:43:43;3.30;99.90
55642;DHT22;41509;53.108;6.100;2023-04-03T07:49:23;3.50;99.90
55642;DHT22;41509;53.108;6.100;2023-04-03T07:51:50;3.60;99.90
55642;DHT22;41509;53.108;6.100;2023-04-03T07:54:23;3.60;99.90
55642;DHT22;41509;53.108;6.100;2023-04-03T07:57:13;3.70;99.90
55642;DHT22;41509;53.108;6.100;2023-04-03T07:59:54;3.70;99.90
55642;DHT22;41509;53.108;6.100;2023-04-03T08:02:25;3.90;99.90
55642;DHT22;41509;53.108;6.100;2023-04-03T08:05:21;3.90;99.90
55642;DHT22;41509;53.108;6.100;2023-04-03T08:12:14;4.20;99.90
55642;DHT22;41509;53.108;6.100;2023-04-03T08:14:43;4.30;99.90
55642;DHT22;41509;53.108;6.100;2023-04-03T08:17:52;4.30;99.90
55642;DHT22;41509;53.108;6.100;2023-04-03T08:20:21;4.50;99.90
55642;DHT22;41509;53.108;6.100;2023-04-03T08:26:18;4.60;99.90
55642;DHT22;41509;53.108;6.100;2023-04-03T08:29:18;4.80;99.90
55642;DHT22;41509;53.108;6.100;2023-04-03T08:32:16;4.90;99.90
55642;DHT22;41509;53.108;6.100;2023-04-03T08:37:49;5.10;99.90
55642;DHT22;41509;53.108;6.100;2023-04-03T08:40:43;5.10;99.90
55642;DHT22;41509;53.108;6.100;2023-04-03T08:46:05;5.40;99.90
55642;DHT22;41509;53.108;6.100;2023-04-03T08:48:54;5.40;99.90
55642;DHT22;41509;53.108;6.100;2023-04-03T08:51:25;5.50;99.90
55642;DHT22;41509;53.108;6.100;2023-04-03T08:57:48;5.70;99.90
55642;DHT22;41509;53.108;6.100;2023-04-03T09:00:54;5.80;99.90
55642;DHT22;41509;53.108;6.100;2023-04-03T09:03:39;5.90;99.90
55642;DHT22;41509;53.108;6.100;2023-04-03T09:06:32;6.00;99.90
55642;DHT22;41509;53.108;6.100;2023-04-03T09:09:32;6.20;99.90
55642;DHT22;41509;53.108;6.100;2023-04-03T09:12:23;6.30;99.90
55642;DHT22;41509;53.108;6.100;2023-04-03T09:15:02;6.50;99.90
55642;DHT22;41509;53.108;6.100;2023-04-03T09:21:08;6.70;99.90
55642;DHT22;41509;53.108;6.100;2023-04-03T09:23:57;6.80;99.90
55642;DHT22;41509;53.108;6.100;2023-04-03T09:26:53;6.90;99.90
55642;DHT22;41509;53.108;6.100;2023-04-03T09:32:45;7.30;99.90
55642;DHT22;41509;53.108;6.100;2023-04-03T09:35:34;7.40;99.90
55642;DHT22;41509;53.108;6.100;2023-04-03T09:38:18;7.50;99.90
55642;DHT22;41509;53.108;6.100;2023-04-03T09:41:21;7.60;99.90
55642;DHT22;41509;53.108;6.100;2023-04-03T09:44:04;7.80;99.90
55642;DHT22;41509;53.108;6.100;2023-04-03T09:46:47;7.90;99.90
55642;DHT22;41509;53.108;6.100;2023-04-03T09:49:19;8.00;99.90
55642;DHT22;41509;53.108;6.100;2023-04-03T09:51:45;8.00;99.90
55642;DHT22;41509;53.108;6.100;2023-04-03T09:54:31;8.20;99.90
55642;DHT22;41509;53.108;6.100;2023-04-03T09:57:06;8.40;99.60
55642;DHT22;41509;53.108;6.100;2023-04-03T09:59:32;8.50;99.70
55642;DHT22;41509;53.108;6.100;2023-04-03T10:02:21;8.60;99.10
55642;DHT22;41509;53.108;6.100;2023-04-03T10:04:47;8.80;98.30
55642;DHT22;41509;53.108;6.100;2023-04-03T10:07:34;8.90;97.10
55642;DHT22;41509;53.108;6.100;2023-04-03T10:10:17;8.90;95.10
55642;DHT22;41509;53.108;6.100;2023-04-03T10:12:43;9.10;95.00
55642;DHT22;41509;53.108;6.100;2023-04-03T10:15:17;9.20;93.10
55642;DHT22;41509;53.108;6.100;2023-04-03T10:17:51;9.30;90.90
55642;DHT22;41509;53.108;6.100;2023-04-03T10:20:39;9.40;89.00
55642;DHT22;41509;53.108;6.100;2023-04-03T10:28:49;9.60;87.60
55642;DHT22;41509;53.108;6.100;2023-04-03T10:31:21;9.60;87.50
55642;DHT22;41509;53.108;6.100;2023-04-03T10:36:38;9.80;81.10
55642;DHT22;41509;53.108;6.100;2023-04-03T10:47:31;10.30;80.00
55642;DHT22;41509;53.108;6.100;2023-04-03T10:57:55;10.60;73.50
55642;DHT22;41509;53.108;6.100;2023-04-03T11:00:40;10.60;73.90
55642;DHT22;41509;53.108;6.100;2023-04-03T11:03:17;10.70;72.40
55642;DHT22;41509;53.108;6.100;2023-04-03T11:05:52;10.80;72.60
55642;DHT22;41509;53.108;6.100;2023-04-03T11:08:33;10.80;71.80
55642;DHT22;41509;53.108;6.100;2023-04-03T11:11:08;10.80;68.20
55642;DHT22;41509;53.108;6.100;2023-04-03T11:13:55;10.80;68.40
55642;DHT22;41509;53.108;6.100;2023-04-03T11:16:25;10.90;70.50
55642;DHT22;41509;53.108;6.100;2023-04-03T11:19:02;10.90;68.10
55642;DHT22;41509;53.108;6.100;2023-04-03T11:21:29;10.90;67.50
55642;DHT22;41509;53.108;6.100;2023-04-03T11:23:57;11.00;63.90
55642;DHT22;41509;53.108;6.100;2023-04-03T11:26:29;11.10;68.70
55642;DHT22;41509;53.108;6.100;2023-04-03T11:29:12;11.30;68.80
55642;DHT22;41509;53.108;6.100;2023-04-03T11:32:09;11.40;66.50
55642;DHT22;41509;53.108;6.100;2023-04-03T11:34:47;11.50;66.40
55642;DHT22;41509;53.108;6.100;2023-04-03T11:37:33;11.50;68.40
55642;DHT22;41509;53.108;6.100;2023-04-03T11:40:21;11.50;65.80
55642;DHT22;41509;53.108;6.100;2023-04-03T11:42:49;11.50;65.80
55642;DHT22;41509;53.108;6.100;2023-04-03T11:58:17;11.70;60.00
55642;DHT22;41509;53.108;6.100;2023-04-03T12:16:33;11.90;59.10
55642;DHT22;41509;53.108;6.100;2023-04-03T12:19:37;11.90;59.30
55642;DHT22;41509;53.108;6.100;2023-04-03T12:22:13;11.90;58.60
55642;DHT22;41509;53.108;6.100;2023-04-03T12:24:45;12.00;59.00
55642;DHT22;41509;53.108;6.100;2023-04-03T12:30:38;12.20;57.40
55642;DHT22;41509;53.108;6.100;2023-04-03T12:33:27;12.40;59.70
55642;DHT22;41509;53.108;6.100;2023-04-03T12:36:15;12.50;56.00
55642;DHT22;41509;53.108;6.100;2023-04-03T12:39:00;12.60;58.70
55642;DHT22;41509;53.108;6.100;2023-04-03T12:46:52;12.70;57.00
55642;DHT22;41509;53.108;6.100;2023-04-03T12:49:37;12.90;58.00
55642;DHT22;41509;53.108;6.100;2023-04-03T12:52:17;13.00;55.00
55642;DHT22;41509;53.108;6.100;2023-04-03T12:54:46;12.90;56.90
55642;DHT22;41509;53.108;6.100;2023-04-03T12:57:20;12.90;56.70
55642;DHT22;41509;53.108;6.100;2023-04-03T12:59:47;12.90;56.30
55642;DHT22;41509;53.108;6.100;2023-04-03T13:02:34;12.80;56.60
55642;DHT22;41509;53.108;6.100;2023-04-03T13:05:07;12.90;55.90
55642;DHT22;41509;53.108;6.100;2023-04-03T13:07:36;12.90;54.90
55642;DHT22;41509;53.108;6.100;2023-04-03T13:12:34;12.80;56.10
55642;DHT22;41509;53.108;6.100;2023-04-03T13:15:12;12.90;55.70
55642;DHT22;41509;53.108;6.100;2023-04-03T13:17:42;13.00;54.50
55642;DHT22;41509;53.108;6.100;2023-04-03T13:20:27;12.90;55.00
55642;DHT22;41509;53.108;6.100;2023-04-03T13:23:16;13.00;55.70
55642;DHT22;41509;53.108;6.100;2023-04-03T13:25:45;13.00;52.60
55642;DHT22;41509;53.108;6.100;2023-04-03T13:28:18;13.20;56.10
55642;DHT22;41509;53.108;6.100;2023-04-03T13:33:26;13.30;53.10
55642;DHT22;41509;53.108;6.100;2023-04-03T13:36:03;13.30;55.10
55642;DHT22;41509;53.108;6.100;2023-04-03T13:38:31;13.40;54.80
55642;DHT22;41509;53.108;6.100;2023-04-03T13:41:01;13.40;54.20
55642;DHT22;41509;53.108;6.100;2023-04-03T13:43:30;13.30;52.90
55642;DHT22;41509;53.108;6.100;2023-04-03T13:48:47;13.20;53.40
55642;DHT22;41509;53.108;6.100;2023-04-03T13:51:21;13.20;51.70
55642;DHT22;41509;53.108;6.100;2023-04-03T13:53:57;13.10;52.60
55642;DHT22;41509;53.108;6.100;2023-04-03T13:56:35;13.10;52.90
55642;DHT22;41509;53.108;6.100;2023-04-03T13:59:24;13.10;52.90
55642;DHT22;41509;53.108;6.100;2023-04-03T14:06:58;13.40;54.30
55642;DHT22;41509;53.108;6.100;2023-04-03T14:09:26;13.40;53.90
55642;DHT22;41509;53.108;6.100;2023-04-03T14:11:55;13.50;53.20
55642;DHT22;41509;53.108;6.100;2023-04-03T14:14:30;13.60;53.60
55642;DHT22;41509;53.108;6.100;2023-04-03T14:16:58;13.40;52.50
55642;DHT22;41509;53.108;6.100;2023-04-03T14:19:29;13.50;53.40
55642;DHT22;41509;53.108;6.100;2023-04-03T14:21:56;13.40;52.70
55642;DHT22;41509;53.108;6.100;2023-04-03T14:24:23;13.40;53.00
55642;DHT22;41509;53.108;6.100;2023-04-03T14:26:49;13.30;52.70
55642;DHT22;41509;53.108;6.100;2023-04-03T14:29:15;13.20;51.60
55642;DHT22;41509;53.108;6.100;2023-04-03T14:31:43;13.10;53.10
55642;DHT22;41509;53.108;6.100;2023-04-03T14:34:11;13.20;53.60
55642;DHT22;41509;53.108;6.100;2023-04-03T14:36:37;13.20;53.60
55642;DHT22;41509;53.108;6.100;2023-04-03T14:39:04;13.30;53.60
55642;DHT22;41509;53.108;6.100;2023-04-03T14:41:30;13.30;53.00
55642;DHT22;41509;53.108;6.100;2023-04-03T14:43:56;13.30;53.00
55642;DHT22;41509;53.108;6.100;2023-04-03T14:46:29;13.20;53.00
55642;DHT22;41509;53.108;6.100;2023-04-03T14:48:56;13.20;53.20
55642;DHT22;41509;53.108;6.100;2023-04-03T14:51:21;13.20;53.80
55642;DHT22;41509;53.108;6.100;2023-04-03T14:53:47;13.20;54.00
55642;DHT22;41509;53.108;6.100;2023-04-03T14:56:24;13.10;54.00
55642;DHT22;41509;53.108;6.100;2023-04-03T14:58:58;13.20;54.60
55642;DHT22;41509;53.108;6.100;2023-04-03T15:01:25;13.20;54.80
55642;DHT22;41509;53.108;6.100;2023-04-03T15:03:51;13.30;54.70
55642;DHT22;41509;53.108;6.100;2023-04-03T15:06:16;13.20;53.50
55642;DHT22;41509;53.108;6.100;2023-04-03T15:08:43;13.00;52.80
55642;DHT22;41509;53.108;6.100;2023-04-03T15:11:10;12.70;52.20
55642;DHT22;41509;53.108;6.100;2023-04-03T15:13:37;12.50;53.10
55642;DHT22;41509;53.108;6.100;2023-04-03T15:16:02;12.40;54.60
55642;DHT22;41509;53.108;6.100;2023-04-03T15:18:30;12.40;55.90
55642;DHT22;41509;53.108;6.100;2023-04-03T15:20:57;12.30;56.00
55642;DHT22;41509;53.108;6.100;2023-04-03T15:23:22;12.20;56.50
55642;DHT22;41509;53.108;6.100;2023-04-03T15:25:53;12.00;57.00
55642;DHT22;41509;53.108;6.100;2023-04-03T15:28:38;12.00;57.60
55642;DHT22;41509;53.108;6.100;2023-04-03T15:31:08;12.00;57.20
55642;DHT22;41509;53.108;6.100;2023-04-03T15:33:34;11.90;57.40
55642;DHT22;41509;53.108;6.100;2023-04-03T15:36:00;11.80;56.80
55642;DHT22;41509;53.108;6.100;2023-04-03T15:38:26;11.70;57.30
55642;DHT22;41509;53.108;6.100;2023-04-03T15:40:51;11.70;57.60
55642;DHT22;41509;53.108;6.100;2023-04-03T15:43:17;11.70;58.00
55642;DHT22;41509;53.108;6.100;2023-04-03T15:45:44;11.70;58.00
55642;DHT22;41509;53.108;6.100;2023-04-03T15:48:10;11.70;58.30
55642;DHT22;41509;53.108;6.100;2023-04-03T15:50:36;11.70;58.10
55642;DHT22;41509;53.108;6.100;2023-04-03T15:53:02;11.60;57.30
55642;DHT22;41509;53.108;6.100;2023-04-03T15:55:30;11.60;58.20
55642;DHT22;41509;53.108;6.100;2023-04-03T15:57:56;11.60;58.70
55642;DHT22;41509;53.108;6.100;2023-04-03T16:00:23;11.40;58.90
55642;DHT22;41509;53.108;6.100;2023-04-03T16:02:51;11.30;59.50
55642;DHT22;41509;53.108;6.100;2023-04-03T16:05:20;11.20;60.00
55642;DHT22;41509;53.108;6.100;2023-04-03T16:07:46;11.10;60.30
55642;DHT22;41509;53.108;6.100;2023-04-03T16:10:14;11.00;60.40
55642;DHT22;41509;53.108;6.100;2023-04-03T16:12:40;10.90;61.00
55642;DHT22;41509;53.108;6.100;2023-04-03T16:15:07;10.80;61.10
55642;DHT22;41509;53.108;6.100;2023-04-03T16:17:33;10.70;61.20
55642;DHT22;41509;53.108;6.100;2023-04-03T16:20:00;10.50;61.30
55642;DHT22;41509;53.108;6.100;2023-04-03T16:22:27;10.40;61.40
55642;DHT22;41509;53.108;6.100;2023-04-03T16:24:54;10.30;61.40
55642;DHT22;41509;53.108;6.100;2023-04-03T16:27:20;10.10;61.30
55642;DHT22;41509;53.108;6.100;2023-04-03T16:29:46;9.90;61.70
55642;DHT22;41509;53.108;6.100;2023-04-03T16:32:13;9.80;61.80
55642;DHT22;41509;53.108;6.100;2023-04-03T16:34:39;9.70;61.90
55642;DHT22;41509;53.108;6.100;2023-04-03T16:37:06;9.50;62.20
55642;DHT22;41509;53.108;6.100;2023-04-03T16:39:34;9.40;62.30
55642;DHT22;41509;53.108;6.100;2023-04-03T16:42:00;9.40;62.50
55642;DHT22;41509;53.108;6.100;2023-04-03T16:44:25;9.30;62.80
55642;DHT22;41509;53.108;6.100;2023-04-03T16:46:51;9.20;63.20
55642;DHT22;41509;53.108;6.100;2023-04-03T16:49:17;9.10;63.30
55642;DHT22;41509;53.108;6.100;2023-04-03T16:51:45;9.00;63.40
55642;DHT22;41509;53.108;6.100;2023-04-03T16:54:12;8.90;63.90
55642;DHT22;41509;53.108;6.100;2023-04-03T16:56:39;8.80;64.50
55642;DHT22;41509;53.108;6.100;2023-04-03T16:59:05;8.70;64.80
55642;DHT22;41509;53.108;6.100;2023-04-03T17:01:33;8.70;65.50
55642;DHT22;41509;53.108;6.100;2023-04-03T17:03:59;8.60;65.50
55642;DHT22;41509;53.108;6.100;2023-04-03T17:06:25;8.60;66.00
55642;DHT22;41509;53.108;6.100;2023-04-03T17:08:51;8.50;65.80
55642;DHT22;41509;53.108;6.100;2023-04-03T17:11:20;8.30;66.10
55642;DHT22;41509;53.108;6.100;2023-04-03T17:13:45;8.30;66.60
55642;DHT22;41509;53.108;6.100;2023-04-03T17:16:14;8.20;66.70
55642;DHT22;41509;53.108;6.100;2023-04-03T17:18:43;8.10;67.10
55642;DHT22;41509;53.108;6.100;2023-04-03T17:21:09;8.00;67.00
55642;DHT22;41509;53.108;6.100;2023-04-03T17:23:36;7.90;67.10
55642;DHT22;41509;53.108;6.100;2023-04-03T17:26:03;7.90;67.30
55642;DHT22;41509;53.108;6.100;2023-04-03T17:28:29;7.90;67.80
55642;DHT22;41509;53.108;6.100;2023-04-03T17:30:56;7.80;68.10
55642;DHT22;41509;53.108;6.100;2023-04-03T17:33:24;7.70;68.90
55642;DHT22;41509;53.108;6.100;2023-04-03T17:35:58;7.70;69.00
55642;DHT22;41509;53.108;6.100;2023-04-03T17:38:25;7.60;69.30
55642;DHT22;41509;53.108;6.100;2023-04-03T17:40:55;7.50;70.00
55642;DHT22;41509;53.108;6.100;2023-04-03T17:43:20;7.40;70.30
55642;DHT22;41509;53.108;6.100;2023-04-03T17:45:46;7.40;70.70
55642;DHT22;41509;53.108;6.100;2023-04-03T17:48:11;7.30;70.90
55642;DHT22;41509;53.108;6.100;2023-04-03T17:50:37;7.30;71.80
55642;DHT22;41509;53.108;6.100;2023-04-03T17:53:03;7.20;72.10
55642;DHT22;41509;53.108;6.100;2023-04-03T17:55:46;7.10;72.50
55642;DHT22;41509;53.108;6.100;2023-04-03T17:58:30;7.00;73.50